Time;durP1;ratioP1;P1;durP2;ratioP2;P2;SDS_P1;SDS_P2;PMS_P1;PMS_P2;Temp;Humidity;BMP_temperature;BMP_pressure;BME280_temperature;BME280_humidity;BME280_pressure;Samples;Min_cycle;Max_cycle;Signal;HPM_P1;HPM_P2
2023/04/02 00:01:33;;;;;;;;;;;;;;;12.11;100.00;97019.25;5119254;28;19995;-68
2023/04/02 00:04:13;;;;;;;;;;;;;;;11.97;100.00;97018.44;5109183;27;19924;-68
2023/04/02 00:06:43;;;;;;;;;;;;;;;12.07;100.00;97015.59;5121853;28;19928;-65
2023/04/02 00:09:28;;;;;;;;;;;;;;;12.04;100.00;97019.63;5101805;28;19920;-68
2023/04/02 00:11:56;;;;;;;;;;;;;;;11.93;100.00;97012.06;5118750;28;19967;-66
2023/04/02 00:14:24;;;;;;;;;;;;;;;11.97;100.00;97027.25;5122036;28;19920;-66
2023/04/02 00:16:51;;;;;;;;;;;;;;;11.96;100.00;97027.53;5103807;28;19934;-69
2023/04/02 00:19:19;;;;;;;;;;;;;;;11.86;100.00;97037.31;5118657;28;19952;-68
2023/04/02 00:21:47;;;;;;;;;;;;;;;11.83;100.00;97029.88;5117912;28;19928;-68
2023/04/02 00:24:15;;;;;;;;;;;;;;;11.95;100.00;97031.28;5120578;28;19959;-68
2023/04/02 00:26:43;;;;;;;;;;;;;;;11.94;100.00;97035.06;5121499;28;19935;-68
2023/04/02 00:29:12;;;;;;;;;;;;;;;11.71;100.00;97037.56;5119256;28;19955;-67
2023/04/02 00:31:40;;;;;;;;;;;;;;;11.80;100.00;97038.47;5111786;28;19959;-72
2023/04/02 00:34:08;;;;;;;;;;;;;;;11.76;100.00;97039.38;5119572;28;19935;-65
2023/04/02 00:36:35;;;;;;;;;;;;;;;11.76;100.00;97040.16;5121189;28;19987;-68
2023/04/02 00:39:04;;;;;;;;;;;;;;;11.72;100.00;97039.16;5101850;28;19924;-69
2023/04/02 00:41:35;;;;;;;;;;;;;;;11.85;100.00;97051.00;5118775;28;19924;-66
2023/04/02 00:44:01;;;;;;;;;;;;;;;11.96;100.00;97049.75;5113085;28;19924;-68
2023/04/02 00:46:30;;;;;;;;;;;;;;;11.74;100.00;97044.19;5121812;28;19923;-67
2023/04/02 00:48:59;;;;;;;;;;;;;;;11.81;100.00;97047.31;5102876;28;19931;-68
2023/04/02 00:51:30;;;;;;;;;;;;;;;11.54;100.00;97047.97;5118007;28;19931;-67
2023/04/02 00:53:58;;;;;;;;;;;;;;;11.75;100.00;97049.28;5118272;28;19959;-66
2023/04/02 00:56:26;;;;;;;;;;;;;;;11.81;100.00;97037.41;5121532;28;19927;-65
2023/04/02 00:58:54;;;;;;;;;;;;;;;11.59;100.00;97050.56;5103209;28;19970;-68
2023/04/02 01:01:23;;;;;;;;;;;;;;;11.77;100.00;97052.44;5111371;28;19991;-67
2023/04/02 01:03:56;;;;;;;;;;;;;;;11.83;100.00;97051.28;5118179;28;19951;-69
2023/04/02 01:06:24;;;;;;;;;;;;;;;11.71;100.00;97056.28;5109697;28;19920;-71
2023/04/02 01:09:00;;;;;;;;;;;;;;;11.66;100.00;97059.00;5091599;28;19924;-69
2023/04/02 01:11:41;;;;;;;;;;;;;;;11.68;100.00;97059.50;5108558;28;19928;-71
2023/04/02 01:14:13;;;;;;;;;;;;;;;11.68;100.00;97064.06;5118879;28;19931;-71
2023/04/02 01:16:45;;;;;;;;;;;;;;;11.73;100.00;97064.00;5120504;28;19991;-69
2023/04/02 01:19:26;;;;;;;;;;;;;;;11.78;100.00;97063.94;5118329;28;19924;-69
2023/04/02 01:21:56;;;;;;;;;;;;;;;11.70;100.00;97060.03;5116997;28;20021;-69
2023/04/02 01:24:25;;;;;;;;;;;;;;;11.83;100.00;97069.22;5117248;28;19980;-69
2023/04/02 01:26:53;;;;;;;;;;;;;;;11.87;100.00;97072.91;5117004;28;19924;-69
2023/04/02 01:29:21;;;;;;;;;;;;;;;11.95;100.00;97064.19;5120699;28;20082;-70
2023/04/02 01:31:50;;;;;;;;;;;;;;;11.91;100.00;97063.22;5113270;28;19935;-70
2023/04/02 01:34:18;;;;;;;;;;;;;;;12.01;100.00;97078.31;5102215;28;19971;-72
2023/04/02 01:36:52;;;;;;;;;;;;;;;11.94;100.00;97072.53;5102778;28;19984;-69
2023/04/02 01:39:23;;;;;;;;;;;;;;;11.97;100.00;97077.28;5099688;28;19960;-67
2023/04/02 01:41:54;;;;;;;;;;;;;;;11.93;100.00;97076.28;5117453;28;20000;-69
2023/04/02 01:44:25;;;;;;;;;;;;;;;11.87;100.00;97079.03;5108549;28;19924;-70
2023/04/02 01:46:52;;;;;;;;;;;;;;;11.88;100.00;97077.16;5108525;28;20590;-69
2023/04/02 01:49:20;;;;;;;;;;;;;;;11.79;100.00;97087.72;5090690;28;19967;-69
2023/04/02 01:51:50;;;;;;;;;;;;;;;11.77;100.00;97089.09;5108407;28;19935;-71
2023/04/02 01:54:20;;;;;;;;;;;;;;;11.85;100.00;97080.44;5108395;28;20023;-69
2023/04/02 01:56:46;;;;;;;;;;;;;;;11.81;100.00;97093.59;5108835;28;19963;-70
2023/04/02 01:59:14;;;;;;;;;;;;;;;11.88;100.00;97085.97;5108600;28;19987;-69
2023/04/02 02:01:45;;;;;;;;;;;;;;;11.74;100.00;97082.44;5111002;28;19924;-68
2023/04/02 02:04:12;;;;;;;;;;;;;;;11.81;100.00;97084.75;5101134;28;20293;-69
2023/04/02 02:06:39;;;;;;;;;;;;;;;11.87;100.00;97089.75;5120132;28;19926;-70
2023/04/02 02:09:08;;;;;;;;;;;;;;;11.88;100.00;97093.22;5100569;28;19926;-68
2023/04/02 02:11:35;;;;;;;;;;;;;;;11.87;100.00;97088.94;5098755;28;19935;-69
2023/04/02 02:14:05;;;;;;;;;;;;;;;11.85;100.00;97091.13;5117164;28;19924;-70
2023/04/02 02:16:32;;;;;;;;;;;;;;;11.81;100.00;97093.59;5119589;28;19924;-68
2023/04/02 02:19:01;;;;;;;;;;;;;;;11.78;100.00;97094.16;5119578;28;19920;-70
2023/04/02 02:21:35;;;;;;;;;;;;;;;11.68;100.00;97102.31;5116522;28;19963;-69
2023/04/02 02:24:03;;;;;;;;;;;;;;;11.66;100.00;97088.44;5117047;28;19924;-69
2023/04/02 02:26:32;;;;;;;;;;;;;;;11.76;100.00;97096.31;5119624;28;19948;-67
2023/04/02 02:29:00;;;;;;;;;;;;;;;11.70;100.00;97100.16;5119069;28;20397;-67
2023/04/02 02:31:29;;;;;;;;;;;;;;;11.77;100.00;97105.94;5109998;28;19951;-69
2023/04/02 02:33:58;;;;;;;;;;;;;;;11.70;100.00;97104.69;5116353;28;19970;-71
2023/04/02 02:36:28;;;;;;;;;;;;;;;11.72;100.00;97105.22;5123870;28;19919;-71
2023/04/02 02:38:56;;;;;;;;;;;;;;;11.76;100.00;97108.91;5123913;28;19924;-72
2023/04/02 02:41:26;;;;;;;;;;;;;;;11.73;100.00;97107.59;5112023;28;19965;-71
2023/04/02 02:43:57;;;;;;;;;;;;;;;11.76;100.00;97114.28;5111957;28;19920;-69
2023/04/02 02:46:25;;;;;;;;;;;;;;;11.72;100.00;97113.25;5131566;27;19928;-70
2023/04/02 02:48:52;;;;;;;;;;;;;;;11.67;100.00;97121.28;5105888;28;20027;-69
2023/04/02 02:51:21;;;;;;;;;;;;;;;11.59;100.00;97117.41;5120047;28;19920;-70
2023/04/02 02:53:51;;;;;;;;;;;;;;;11.63;100.00;97121.09;5101823;28;19951;-67
2023/04/02 02:56:19;;;;;;;;;;;;;;;11.63;100.00;97122.97;5122699;28;19987;-68
2023/04/02 02:58:45;;;;;;;;;;;;;;;11.65;100.00;97129.63;5123693;28;19924;-69
2023/04/02 03:01:12;;;;;;;;;;;;;;;11.48;100.00;97128.53;5114938;28;19927;-71
2023/04/02 03:03:39;;;;;;;;;;;;;;;11.48;100.00;97137.31;5102102;28;19987;-70
2023/04/02 03:06:07;;;;;;;;;;;;;;;11.47;100.00;97137.63;5103536;28;19924;-71
2023/04/02 03:08:35;;;;;;;;;;;;;;;11.56;100.00;97142.03;5123722;28;19928;-69
2023/04/02 03:11:05;;;;;;;;;;;;;;;11.60;100.00;97137.72;5121699;28;19920;-67
2023/04/02 03:13:34;;;;;;;;;;;;;;;11.57;100.00;97143.66;5120088;28;20476;-69
2023/04/02 03:16:02;;;;;;;;;;;;;;;11.59;100.00;97149.50;5104394;28;19924;-69
2023/04/02 03:18:34;;;;;;;;;;;;;;;11.60;100.00;97153.75;5124240;28;19988;-69
2023/04/02 03:21:02;;;;;;;;;;;;;;;11.58;100.00;97150.56;5122995;28;19996;-69
2023/04/02 03:23:32;;;;;;;;;;;;;;;11.63;100.00;97157.75;5102238;28;19955;-71
2023/04/02 03:26:00;;;;;;;;;;;;;;;11.58;100.00;97155.91;5120678;28;19964;-71
2023/04/02 03:28:30;;;;;;;;;;;;;;;11.57;100.00;97161.56;5123631;28;19960;-70
2023/04/02 03:31:00;;;;;;;;;;;;;;;11.49;100.00;97171.00;5116908;28;19924;-71
2023/04/02 03:33:31;;;;;;;;;;;;;;;11.57;100.00;97165.03;5101663;28;19924;-70
2023/04/02 03:35:59;;;;;;;;;;;;;;;11.52;100.00;97172.31;5120454;28;19962;-69
2023/04/02 03:38:28;;;;;;;;;;;;;;;11.64;100.00;97165.47;5105146;28;19947;-71
2023/04/02 03:40:58;;;;;;;;;;;;;;;11.61;100.00;97168.72;5104923;28;19934;-70
2023/04/02 03:43:25;;;;;;;;;;;;;;;11.63;100.00;97157.75;5111227;28;19924;-70
2023/04/02 03:45:57;;;;;;;;;;;;;;;11.61;100.00;97163.38;5110632;28;19947;-73
2023/04/02 03:48:26;;;;;;;;;;;;;;;11.54;100.00;97170.97;5101037;28;20390;-71
2023/04/02 03:50:56;;;;;;;;;;;;;;;11.50;100.00;97164.59;5101392;28;19920;-70
2023/04/02 03:53:23;;;;;;;;;;;;;;;11.53;100.00;97174.72;5119282;28;19991;-71
2023/04/02 03:55:49;;;;;;;;;;;;;;;11.58;100.00;97174.63;5119312;28;19920;-68
2023/04/02 03:58:18;;;;;;;;;;;;;;;11.58;100.00;97179.97;5122391;28;19928;-68
2023/04/02 04:00:48;;;;;;;;;;;;;;;11.43;100.00;97179.38;5118232;28;19985;-69
2023/04/02 04:03:19;;;;;;;;;;;;;;;11.52;100.00;97181.13;5100605;28;19928;-72
2023/04/02 04:05:48;;;;;;;;;;;;;;;11.46;100.00;97184.16;5119032;28;19958;-71
2023/04/02 04:08:16;;;;;;;;;;;;;;;11.49;100.00;97188.91;5121567;28;19924;-71
2023/04/02 04:10:43;;;;;;;;;;;;;;;11.41;100.00;97193.03;5122217;28;19959;-70
2023/04/02 04:13:12;;;;;;;;;;;;;;;11.48;100.00;97192.69;5102157;28;19924;-70
2023/04/02 04:15:41;;;;;;;;;;;;;;;11.47;100.00;97191.91;5118149;28;19928;-69
2023/04/02 04:18:12;;;;;;;;;;;;;;;11.48;100.00;97198.81;5101836;28;19951;-69
2023/04/02 04:20:44;;;;;;;;;;;;;;;11.57;100.00;97204.34;5104430;28;19970;-68
2023/04/02 04:23:17;;;;;;;;;;;;;;;11.57;100.00;97207.03;5119529;28;20027;-72
2023/04/02 04:25:43;;;;;;;;;;;;;;;11.59;100.00;97211.00;5100171;28;19935;-69
2023/04/02 04:28:15;;;;;;;;;;;;;;;11.46;100.00;97209.00;5101891;28;20355;-71
2023/04/02 04:30:47;;;;;;;;;;;;;;;11.53;100.00;97216.69;5117311;28;19924;-70
2023/04/02 04:33:21;;;;;;;;;;;;;;;11.58;100.00;97225.44;5100330;28;19955;-69
2023/04/02 04:35:51;;;;;;;;;;;;;;;11.53;100.00;97220.16;5119430;28;19942;-70
2023/04/02 04:38:26;;;;;;;;;;;;;;;11.51;100.00;97225.00;5103674;28;19926;-71
2023/04/02 04:40:55;;;;;;;;;;;;;;;11.47;100.00;97234.66;5122594;28;19991;-69
2023/04/02 04:43:26;;;;;;;;;;;;;;;11.39;100.00;97237.94;5117209;28;19924;-70
2023/04/02 04:45:55;;;;;;;;;;;;;;;11.50;100.00;97241.31;5118514;28;19931;-68
2023/04/02 04:48:25;;;;;;;;;;;;;;;11.32;100.00;97242.88;5118996;28;19963;-70
2023/04/02 04:50:54;;;;;;;;;;;;;;;11.32;100.00;97245.53;5118107;28;19924;-71
2023/04/02 04:53:22;;;;;;;;;;;;;;;11.34;100.00;97254.06;5110015;28;19941;-71
2023/04/02 04:55:50;;;;;;;;;;;;;;;11.42;100.00;97256.09;5091937;28;19939;-70
2023/04/02 04:58:19;;;;;;;;;;;;;;;11.42;100.00;97258.78;5109039;28;19976;-70
2023/04/02 05:00:50;;;;;;;;;;;;;;;11.34;100.00;97254.06;5111246;28;19931;-72
2023/04/02 05:03:22;;;;;;;;;;;;;;;11.24;100.00;97256.81;5117945;28;19969;-69
2023/04/02 05:05:48;;;;;;;;;;;;;;;11.18;100.00;97265.97;5117961;28;19947;-70
2023/04/02 05:08:19;;;;;;;;;;;;;;;11.27;100.00;97269.63;5120417;28;19942;-68
2023/04/02 05:10:47;;;;;;;;;;;;;;;11.31;100.00;97274.13;5120973;28;19924;-71
2023/04/02 05:13:17;;;;;;;;;;;;;;;11.22;100.00;97280.38;5118580;28;19924;-71
2023/04/02 05:15:48;;;;;;;;;;;;;;;11.31;100.00;97284.03;5117727;28;19931;-69
2023/04/02 05:18:20;;;;;;;;;;;;;;;11.36;100.00;97275.94;5101713;28;19924;-70
2023/04/02 05:20:49;;;;;;;;;;;;;;;11.29;100.00;97276.31;5102962;28;19970;-68
2023/04/02 05:23:18;;;;;;;;;;;;;;;11.21;100.00;97284.13;5118250;28;19928;-68
2023/04/02 05:25:58;;;;;;;;;;;;;;;11.26;100.00;97276.06;5117544;28;19924;-70
2023/04/02 05:28:27;;;;;;;;;;;;;;;11.26;100.00;97286.75;5117509;28;19924;-69
2023/04/02 05:30:56;;;;;;;;;;;;;;;11.23;100.00;97288.09;5117540;28;19951;-68
2023/04/02 05:33:23;;;;;;;;;;;;;;;11.32;100.00;97285.63;5117525;28;19946;-71
2023/04/02 05:35:53;;;;;;;;;;;;;;;11.28;100.00;97298.75;5117579;28;19962;-69
2023/04/02 05:38:22;;;;;;;;;;;;;;;11.31;100.00;97300.88;5120830;28;20584;-69
2023/04/02 05:40:53;;;;;;;;;;;;;;;11.29;100.00;97299.56;5120980;28;19920;-69
2023/04/02 05:43:23;;;;;;;;;;;;;;;11.32;100.00;97301.66;5099223;28;19928;-70
2023/04/02 05:45:52;;;;;;;;;;;;;;;11.28;100.00;97303.31;5117798;28;20621;-69
2023/04/02 05:48:20;;;;;;;;;;;;;;;11.34;100.00;97304.84;5120896;28;19983;-70
2023/04/02 05:50:48;;;;;;;;;;;;;;;11.26;100.00;97308.16;5120871;28;19951;-69
2023/04/02 05:53:19;;;;;;;;;;;;;;;11.27;100.00;97307.03;5117700;28;19924;-70
2023/04/02 05:55:52;;;;;;;;;;;;;;;11.36;100.00;97308.03;5116795;28;19924;-69
2023/04/02 05:58:23;;;;;;;;;;;;;;;11.34;100.00;97315.53;5120420;28;19963;-69
2023/04/02 06:00:54;;;;;;;;;;;;;;;11.40;100.00;97314.41;5115111;28;19931;-71
2023/04/02 06:03:25;;;;;;;;;;;;;;;11.43;100.00;97315.72;5098887;28;19935;-68
2023/04/02 06:05:53;;;;;;;;;;;;;;;11.39;100.00;97318.16;5103538;28;19942;-70
2023/04/02 06:08:22;;;;;;;;;;;;;;;11.36;100.00;97326.75;5121171;28;20334;-70
2023/04/02 06:10:53;;;;;;;;;;;;;;;11.39;100.00;97328.84;5106417;28;19924;-69
2023/04/02 06:13:19;;;;;;;;;;;;;;;11.38;100.00;97328.06;5102969;28;19924;-68
2023/04/02 06:15:46;;;;;;;;;;;;;;;11.36;100.00;97330.22;5121239;28;19924;-69
2023/04/02 06:18:16;;;;;;;;;;;;;;;11.38;100.00;97337.97;5123400;28;19924;-67
2023/04/02 06:20:42;;;;;;;;;;;;;;;11.37;100.00;97336.38;5124526;28;19924;-69
2023/04/02 06:23:13;;;;;;;;;;;;;;;11.44;100.00;97336.84;5104495;28;20025;-70
2023/04/02 06:25:41;;;;;;;;;;;;;;;11.40;100.00;97346.50;5120817;28;19963;-69
2023/04/02 06:28:14;;;;;;;;;;;;;;;11.27;100.00;97341.78;5104227;28;19925;-68
2023/04/02 06:30:41;;;;;;;;;;;;;;;11.32;100.00;97339.09;5120555;28;19924;-68
2023/04/02 06:33:09;;;;;;;;;;;;;;;11.40;100.00;97351.84;5120810;28;19955;-69
2023/04/02 06:35:37;;;;;;;;;;;;;;;11.39;100.00;97359.06;5120744;28;19928;-69
2023/04/02 06:38:05;;;;;;;;;;;;;;;11.43;100.00;97353.94;5121797;28;19960;-68
2023/04/02 06:40:35;;;;;;;;;;;;;;;11.21;100.00;97365.09;5124181;28;20557;-68
2023/04/02 06:43:05;;;;;;;;;;;;;;;11.33;100.00;97356.72;5123352;28;19924;-67
2023/04/02 06:45:38;;;;;;;;;;;;;;;11.37;100.00;97368.44;5120937;28;19995;-69
2023/04/02 06:48:12;;;;;;;;;;;;;;;11.26;100.00;97364.28;5121549;28;19924;-69
2023/04/02 06:50:41;;;;;;;;;;;;;;;11.30;100.00;97379.44;5123797;28;19991;-70
2023/04/02 06:53:10;;;;;;;;;;;;;;;11.34;100.00;97377.81;5121823;28;19980;-70
2023/04/02 06:55:41;;;;;;;;;;;;;;;11.38;100.00;97386.88;5120304;28;19963;-68
2023/04/02 06:58:08;;;;;;;;;;;;;;;11.42;100.00;97381.75;5121869;28;19954;-69
2023/04/02 07:00:37;;;;;;;;;;;;;;;11.37;100.00;97387.16;5120534;28;19935;-70
2023/04/02 07:03:05;;;;;;;;;;;;;;;11.38;100.00;97389.56;5120065;28;20006;-69
2023/04/02 07:05:32;;;;;;;;;;;;;;;11.33;100.00;97391.47;5102087;28;19955;-69
2023/04/02 07:07:58;;;;;;;;;;;;;;;11.37;100.00;97398.66;5120117;28;19984;-70
2023/04/02 07:10:25;;;;;;;;;;;;;;;11.45;100.00;97396.47;5123677;28;19924;-71
2023/04/02 07:12:51;;;;;;;;;;;;;;;11.34;100.00;97401.09;5123614;28;19936;-69
2023/04/02 07:15:18;;;;;;;;;;;;;;;11.25;100.00;97398.22;5120113;28;19927;-69
2023/04/02 07:17:46;;;;;;;;;;;;;;;11.33;100.00;97399.47;5119640;28;20263;-68
2023/04/02 07:20:24;;;;;;;;;;;;;;;11.34;100.00;97398.41;5121949;28;19935;-69
2023/04/02 07:22:50;;;;;;;;;;;;;;;11.29;100.00;97403.81;5123390;28;19923;-69
2023/04/02 07:25:17;;;;;;;;;;;;;;;11.37;100.00;97405.88;5102007;28;20010;-71
2023/04/02 07:27:43;;;;;;;;;;;;;;;11.31;100.00;97409.66;5119369;28;20085;-68
2023/04/02 07:30:10;;;;;;;;;;;;;;;11.26;100.00;97409.72;5121880;28;19991;-69
2023/04/02 07:32:37;;;;;;;;;;;;;;;11.23;100.00;97420.97;5098824;28;19920;-68
2023/04/02 07:35:05;;;;;;;;;;;;;;;11.24;100.00;97423.34;5122116;28;19924;-68
2023/04/02 07:37:31;;;;;;;;;;;;;;;11.23;100.00;97431.66;5119541;28;19975;-68
2023/04/02 07:39:57;;;;;;;;;;;;;;;11.32;100.00;97436.13;5119898;28;20339;-70
2023/04/02 07:42:24;;;;;;;;;;;;;;;11.30;100.00;97432.91;5122967;28;19924;-68
2023/04/02 07:44:51;;;;;;;;;;;;;;;11.20;100.00;97440.22;5139174;27;19931;-71
2023/04/02 07:47:17;;;;;;;;;;;;;;;11.16;100.00;97439.19;5101964;28;19924;-69
2023/04/02 07:49:43;;;;;;;;;;;;;;;11.21;100.00;97453.31;5119247;28;19949;-69
2023/04/02 07:52:12;;;;;;;;;;;;;;;11.15;100.00;97456.28;5120543;28;19935;-69
2023/04/02 07:54:39;;;;;;;;;;;;;;;11.20;100.00;97462.38;5122515;28;19919;-67
2023/04/02 07:57:05;;;;;;;;;;;;;;;11.11;100.00;97455.25;5121074;28;19924;-67
2023/04/02 07:59:31;;;;;;;;;;;;;;;11.11;100.00;97460.59;5118677;28;19939;-69
2023/04/02 08:01:58;;;;;;;;;;;;;;;11.14;100.00;97458.16;5112907;28;19962;-68
2023/04/02 08:04:24;;;;;;;;;;;;;;;11.26;100.00;97466.63;5104396;28;20034;-69
2023/04/02 08:06:51;;;;;;;;;;;;;;;11.33;100.00;97468.97;5121965;28;19923;-67
2023/04/02 08:09:19;;;;;;;;;;;;;;;11.18;100.00;97466.41;5118588;28;19983;-65
2023/04/02 08:11:45;;;;;;;;;;;;;;;11.26;100.00;97474.63;5118177;28;19950;-69
2023/04/02 08:14:12;;;;;;;;;;;;;;;11.25;100.00;97482.94;5120380;28;20648;-68
2023/04/02 08:16:46;;;;;;;;;;;;;;;11.26;100.00;97479.22;5121598;28;19992;-69
2023/04/02 08:19:13;;;;;;;;;;;;;;;11.24;100.00;97484.81;5119188;28;20000;-69
2023/04/02 08:21:39;;;;;;;;;;;;;;;11.26;100.00;97489.91;5117986;28;19960;-68
2023/04/02 08:24:06;;;;;;;;;;;;;;;11.28;100.00;97490.41;5100746;28;20013;-68
2023/04/02 08:26:33;;;;;;;;;;;;;;;11.14;100.00;97498.22;5121284;28;19959;-66
2023/04/02 08:29:00;;;;;;;;;;;;;;;11.22;100.00;97496.88;5120403;28;19946;-64
2023/04/02 08:31:26;;;;;;;;;;;;;;;11.14;100.00;97502.81;5111202;28;19924;-65
2023/04/02 08:33:55;;;;;;;;;;;;;;;11.17;100.00;97502.25;5117072;28;20045;-68
2023/04/02 08:36:25;;;;;;;;;;;;;;;11.17;100.00;97507.59;5117864;28;19950;-66
2023/04/02 08:38:51;;;;;;;;;;;;;;;11.18;100.00;97501.16;5117439;28;19928;-67
2023/04/02 08:41:22;;;;;;;;;;;;;;;11.24;100.00;97510.75;5120618;28;19931;-66
2023/04/02 08:44:10;;;;;;;;;;;;;;;11.27;100.00;97515.53;5121333;28;19931;-64
2023/04/02 08:46:41;;;;;;;;;;;;;;;11.32;100.00;97512.84;5117159;28;19947;-67
2023/04/02 08:49:12;;;;;;;;;;;;;;;11.30;100.00;97515.78;5118744;28;19931;-64
2023/04/02 08:51:39;;;;;;;;;;;;;;;11.33;100.00;97519.78;5120703;28;19962;-65
2023/04/02 08:54:12;;;;;;;;;;;;;;;11.28;100.00;97523.28;5119357;28;19984;-67
2023/04/02 08:56:41;;;;;;;;;;;;;;;11.23;100.00;97522.53;5099213;28;19920;-69
2023/04/02 08:59:16;;;;;;;;;;;;;;;11.24;100.00;97519.56;5118739;28;19987;-67
2023/04/02 09:01:48;;;;;;;;;;;;;;;11.18;100.00;97530.56;5095996;28;19924;-70
2023/04/02 09:04:15;;;;;;;;;;;;;;;11.14;100.00;97527.63;5119956;28;19960;-70
2023/04/02 09:06:42;;;;;;;;;;;;;;;11.17;100.00;97534.31;5120752;28;20019;-67
2023/04/02 09:09:09;;;;;;;;;;;;;;;11.22;100.00;97536.97;5118717;28;19924;-66
2023/04/02 09:11:40;;;;;;;;;;;;;;;11.23;100.00;97531.31;5098797;28;19924;-70
2023/04/02 09:14:13;;;;;;;;;;;;;;;11.22;100.00;97536.97;5118321;28;19920;-62
2023/04/02 09:16:43;;;;;;;;;;;;;;;11.26;100.00;97549.47;5102187;28;19930;-68
2023/04/02 09:19:15;;;;;;;;;;;;;;;11.28;100.00;97546.53;5118199;28;19942;-66
2023/04/02 09:21:43;;;;;;;;;;;;;;;11.36;100.00;97538.72;5098538;28;19928;-66
2023/04/02 09:24:11;;;;;;;;;;;;;;;11.35;100.00;97552.41;5100433;28;19948;-70
2023/04/02 09:26:38;;;;;;;;;;;;;;;11.45;100.00;97552.31;5102143;28;19920;-69
2023/04/02 09:29:19;;;;;;;;;;;;;;;11.39;100.00;97556.09;5118774;28;19924;-68
2023/04/02 09:31:51;;;;;;;;;;;;;;;11.41;100.00;97558.50;5110254;28;19920;-70
2023/04/02 09:34:27;;;;;;;;;;;;;;;11.45;100.00;97568.34;5101137;28;19974;-67
2023/04/02 09:36:53;;;;;;;;;;;;;;;11.44;100.00;97574.81;5101758;28;19924;-67
2023/04/02 09:39:20;;;;;;;;;;;;;;;11.48;100.00;97569.69;5116688;28;19958;-69
2023/04/02 09:41:47;;;;;;;;;;;;;;;11.55;100.00;97575.53;5116328;28;20322;-70
2023/04/02 09:44:18;;;;;;;;;;;;;;;11.39;100.00;97583.63;5101155;28;20428;-70
2023/04/02 09:46:50;;;;;;;;;;;;;;;11.31;100.00;97583.41;5120944;28;19979;-69
2023/04/02 09:49:17;;;;;;;;;;;;;;;11.28;100.00;97589.31;5117183;28;19935;-66
2023/04/02 09:51:44;;;;;;;;;;;;;;;11.31;100.00;97592.25;5097640;28;19935;-68
2023/04/02 09:54:14;;;;;;;;;;;;;;;11.30;100.00;97597.84;5118004;28;22669;-67
2023/04/02 09:56:40;;;;;;;;;;;;;;;11.35;100.00;97600.53;5119741;28;19924;-67
2023/04/02 09:59:14;;;;;;;;;;;;;;;11.39;100.00;97602.34;5118384;28;19987;-66
2023/04/02 10:01:41;;;;;;;;;;;;;;;11.34;100.00;97601.59;5110221;28;19924;-68
2023/04/02 10:04:33;;;;;;;;;;;;;;;11.39;100.00;97601.53;5117767;28;19924;-66
2023/04/02 10:06:59;;;;;;;;;;;;;;;11.34;100.00;97604.25;5118663;28;19923;-67
2023/04/02 10:09:29;;;;;;;;;;;;;;;11.39;100.00;97605.03;5097699;28;19924;-68
2023/04/02 10:11:55;;;;;;;;;;;;;;;11.16;100.00;97623.59;5115835;28;19967;-70
2023/04/02 10:14:24;;;;;;;;;;;;;;;10.81;100.00;97629.84;5123589;28;19924;-64
2023/04/02 10:16:52;;;;;;;;;;;;;;;10.66;100.00;97629.88;5107666;28;19974;-65
2023/04/02 10:19:23;;;;;;;;;;;;;;;10.41;100.00;97638.72;5107476;28;20289;-67
2023/04/02 10:21:51;;;;;;;;;;;;;;;10.40;100.00;97634.44;5097964;28;19993;-67
2023/04/02 10:24:18;;;;;;;;;;;;;;;10.41;100.00;97644.03;5107698;28;20288;-68
2023/04/02 10:26:48;;;;;;;;;;;;;;;10.39;100.00;97643.53;5089630;28;20420;-66
2023/04/02 10:29:21;;;;;;;;;;;;;;;10.52;100.00;97650.97;5134986;28;19964;-68
2023/04/02 10:31:54;;;;;;;;;;;;;;;10.45;100.00;97653.13;5112859;28;20375;-71
2023/04/02 10:34:23;;;;;;;;;;;;;;;10.44;100.00;97659.53;5101768;28;19946;-71
2023/04/02 10:36:54;;;;;;;;;;;;;;;10.25;100.00;97666.47;5120192;28;19924;-68
2023/04/02 10:39:24;;;;;;;;;;;;;;;10.28;100.00;97660.59;5098249;28;19924;-69
2023/04/02 10:41:53;;;;;;;;;;;;;;;10.25;100.00;97661.13;5116316;28;19924;-67
2023/04/02 10:44:32;;;;;;;;;;;;;;;10.29;100.00;97667.53;5118891;28;19935;-65
2023/04/02 10:47:07;;;;;;;;;;;;;;;10.19;100.00;97679.00;5118803;28;19983;-67
2023/04/02 10:49:41;;;;;;;;;;;;;;;10.07;100.00;97681.09;5116079;28;19979;-73
2023/04/02 10:52:12;;;;;;;;;;;;;;;9.99;100.00;97697.63;5117310;28;19963;-67
2023/04/02 10:54:44;;;;;;;;;;;;;;;9.87;100.00;97697.09;5119525;28;19973;-68
2023/04/02 10:57:18;;;;;;;;;;;;;;;10.05;100.00;97709.13;5120923;28;19924;-66
2023/04/02 10:59:46;;;;;;;;;;;;;;;10.20;100.00;97703.84;5121138;28;19924;-69
2023/04/02 11:02:32;;;;;;;;;;;;;;;10.03;100.00;97712.03;5097889;28;19928;-67
2023/04/02 11:05:01;;;;;;;;;;;;;;;10.08;100.00;97708.59;5105426;28;19977;-70
2023/04/02 11:07:30;;;;;;;;;;;;;;;9.98;100.00;97721.91;5121627;28;20739;-69
2023/04/02 11:09:57;;;;;;;;;;;;;;;10.02;100.00;97722.97;5102292;28;19924;-66
2023/04/02 11:12:26;;;;;;;;;;;;;;;10.01;100.00;97719.50;5122946;28;19967;-65
2023/04/02 11:14:53;;;;;;;;;;;;;;;9.83;100.00;97727.19;5122950;28;19983;-73
2023/04/02 11:17:21;;;;;;;;;;;;;;;9.68;100.00;97720.75;5101495;28;19924;-69
2023/04/02 11:19:47;;;;;;;;;;;;;;;9.63;100.00;97723.38;5119155;28;20023;-70
2023/04/02 11:22:16;;;;;;;;;;;;;;;9.55;100.00;97733.75;5103897;28;19924;-68
2023/04/02 11:24:45;;;;;;;;;;;;;;;9.64;100.00;97741.00;5123100;28;19979;-71
2023/04/02 11:27:22;;;;;;;;;;;;;;;9.57;100.00;97744.94;5103281;28;19935;-63
2023/04/02 11:29:49;;;;;;;;;;;;;;;9.67;100.00;97743.16;5105463;28;19961;-70
2023/04/02 11:32:27;;;;;;;;;;;;;;;9.40;100.00;97749.69;5123374;28;20166;-71
2023/04/02 11:35:20;;;;;;;;;;;;;;;9.74;100.00;97751.72;5114199;28;19924;-72
2023/04/02 11:37:48;;;;;;;;;;;;;;;9.70;100.00;97757.81;5126299;28;19924;-67
2023/04/02 11:40:48;;;;;;;;;;;;;;;9.64;100.00;97762.31;5113012;28;19920;-72
2023/04/02 11:43:32;;;;;;;;;;;;;;;9.50;100.00;97760.41;5090504;28;19950;-68
2023/04/02 11:45:59;;;;;;;;;;;;;;;9.36;100.00;97764.56;5104094;28;19986;-66
2023/04/02 11:48:27;;;;;;;;;;;;;;;9.66;100.00;97770.06;5119719;28;19908;-70
2023/04/02 11:50:53;;;;;;;;;;;;;;;9.71;100.00;97762.09;5127550;28;19927;-68
2023/04/02 11:53:22;;;;;;;;;;;;;;;9.84;100.00;97768.81;5101711;28;19925;-74
2023/04/02 11:56:04;;;;;;;;;;;;;;;9.97;100.00;97765.63;5119442;28;19920;-70
2023/04/02 11:58:36;;;;;;;;;;;;;;;10.10;100.00;97775.81;5110527;28;19956;-72
2023/04/02 12:01:21;;;;;;;;;;;;;;;10.19;100.00;97779.59;5100672;28;19924;-76
2023/04/02 12:03:53;;;;;;;;;;;;;;;10.28;100.00;97770.00;5110400;28;19935;-69
2023/04/02 12:06:24;;;;;;;;;;;;;;;10.25;100.00;97776.69;5109602;28;19924;-69
2023/04/02 12:09:03;;;;;;;;;;;;;;;10.05;100.00;97779.28;5108017;28;19937;-68
2023/04/02 12:11:31;;;;;;;;;;;;;;;10.01;100.00;97782.72;5117490;28;19992;-68
2023/04/02 12:13:58;;;;;;;;;;;;;;;9.97;100.00;97795.78;5118882;28;19924;-70
2023/04/02 12:16:30;;;;;;;;;;;;;;;10.02;100.00;97801.16;5104267;28;19927;-67
2023/04/02 12:18:57;;;;;;;;;;;;;;;9.72;100.00;97801.81;5122329;28;19987;-69
2023/04/02 12:21:24;;;;;;;;;;;;;;;9.65;100.00;97811.13;5118483;28;19955;-68
2023/04/02 12:23:52;;;;;;;;;;;;;;;9.69;100.00;97817.53;5118338;28;19951;-72
2023/04/02 12:26:35;;;;;;;;;;;;;;;9.58;100.00;97811.34;5121361;28;19924;-72
2023/04/02 12:29:15;;;;;;;;;;;;;;;9.42;100.00;97815.00;5121384;28;19923;-72
2023/04/02 12:31:42;;;;;;;;;;;;;;;9.30;100.00;97830.38;5094565;28;19928;-71
2023/04/02 12:34:13;;;;;;;;;;;;;;;9.55;100.00;97827.06;5102210;28;19924;-67
2023/04/02 12:36:40;;;;;;;;;;;;;;;9.57;100.00;97828.41;5121982;28;19924;-68
2023/04/02 12:39:15;;;;;;;;;;;;;;;9.56;100.00;97836.69;5120219;28;19931;-69
2023/04/02 12:41:43;;;;;;;;;;;;;;;9.77;100.00;97830.38;5118161;28;19987;-67
2023/04/02 12:44:14;;;;;;;;;;;;;;;9.63;100.00;97843.38;5120019;28;19952;-69
2023/04/02 12:46:53;;;;;;;;;;;;;;;9.75;100.00;97843.97;5121566;28;19924;-71
2023/04/02 12:49:31;;;;;;;;;;;;;;;9.87;100.00;97848.31;5118442;28;19984;-68
2023/04/02 12:51:58;;;;;;;;;;;;;;;9.88;100.00;97844.56;5117599;28;19982;-70